createdAt,value
2019-01-30T00:00:10.772Z,8.57
2019-01-30T00:02:43.303Z,10.23
2019-01-30T00:05:14.338Z,10.00
2019-01-30T00:07:45.072Z,10.30
2019-01-30T00:10:16.158Z,9.43
2019-01-30T00:12:47.247Z,8.67
2019-01-30T00:15:18.558Z,6.70
2019-01-30T00:17:49.353Z,12.90
2019-01-30T00:20:20.321Z,8.53
2019-01-30T00:22:51.246Z,9.93
2019-01-30T00:25:23.987Z,7.93
2019-01-30T00:27:54.934Z,14.67
2019-01-30T00:30:26.452Z,11.43
2019-01-30T00:32:57.413Z,9.47
2019-01-30T00:35:28.397Z,7.90
2019-01-30T00:37:59.229Z,9.53
2019-01-30T00:40:30.315Z,6.80
2019-01-30T00:43:01.086Z,12.13
2019-01-30T00:45:31.963Z,6.73
2019-01-30T00:48:02.850Z,7.50
2019-01-30T00:50:33.828Z,7.97
2019-01-30T00:53:04.924Z,9.03
2019-01-30T00:55:36.298Z,8.83
2019-01-30T00:58:07.340Z,8.30
2019-01-30T01:00:38.415Z,6.90
2019-01-30T01:03:09.303Z,10.70
2019-01-30T01:05:40.160Z,9.43
2019-01-30T01:08:10.978Z,10.13
2019-01-30T01:10:42.377Z,6.70
2019-01-30T01:13:14.617Z,7.10
2019-01-30T01:15:45.689Z,9.17
2019-01-30T01:18:17.589Z,7.97
2019-01-30T01:20:48.864Z,8.43
2019-01-30T01:23:19.881Z,10.67
2019-01-30T01:25:50.786Z,7.60
2019-01-30T01:28:21.657Z,8.40
2019-01-30T01:30:52.642Z,6.23
2019-01-30T01:33:24.973Z,9.50
2019-01-30T01:35:56.034Z,7.67
2019-01-30T01:38:27.131Z,10.13
2019-01-30T01:40:58.037Z,9.17
2019-01-30T01:43:28.923Z,8.17
2019-01-30T01:45:59.849Z,7.87
2019-01-30T01:48:30.515Z,8.80
2019-01-30T01:51:01.517Z,8.27
2019-01-30T01:53:32.390Z,9.20
2019-01-30T01:56:03.470Z,7.33
2019-01-30T01:58:34.355Z,7.30
2019-01-30T02:01:05.357Z,10.20
2019-01-30T02:03:36.244Z,7.43
2019-01-30T02:06:07.396Z,8.20
2019-01-30T02:08:38.315Z,6.70
2019-01-30T02:11:09.333Z,6.60
2019-01-30T02:13:40.119Z,5.03
2019-01-30T02:16:10.998Z,7.33
2019-01-30T02:18:42.066Z,8.60
2019-01-30T02:21:13.063Z,8.17
2019-01-30T02:23:45.071Z,9.93
2019-01-30T02:26:15.981Z,10.70
2019-01-30T02:28:46.759Z,8.83
2019-01-30T02:31:18.188Z,8.60
2019-01-30T02:33:49.031Z,9.17
2019-01-30T02:36:20.038Z,10.07
2019-01-30T02:38:50.824Z,13.50
2019-01-30T02:41:21.888Z,7.13
2019-01-30T02:43:52.680Z,9.53
2019-01-30T02:46:23.758Z,9.53
2019-01-30T02:48:54.582Z,10.40
2019-01-30T02:51:25.886Z,8.03
2019-01-30T02:53:57.765Z,9.03
2019-01-30T02:56:28.745Z,8.17
2019-01-30T02:58:59.643Z,10.30
2019-01-30T03:01:30.751Z,11.67
2019-01-30T03:04:01.540Z,12.57
2019-01-30T03:06:32.651Z,13.33
2019-01-30T03:09:03.781Z,11.10
2019-01-30T03:11:36.016Z,9.03
2019-01-30T03:14:07.035Z,10.03
2019-01-30T03:16:38.314Z,10.60
2019-01-30T03:19:09.313Z,11.53
2019-01-30T03:21:40.458Z,11.70
2019-01-30T03:24:11.401Z,9.37
2019-01-30T03:26:42.378Z,13.20
2019-01-30T03:29:13.158Z,8.47
2019-01-30T03:31:44.159Z,8.20
2019-01-30T03:34:14.853Z,7.87
2019-01-30T03:36:45.751Z,11.70
2019-01-30T03:39:16.526Z,10.37
2019-01-30T03:41:47.412Z,9.83
2019-01-30T03:44:18.280Z,9.13
2019-01-30T03:46:49.329Z,7.67
2019-01-30T03:49:20.445Z,7.77
2019-01-30T03:51:51.459Z,8.87
2019-01-30T03:54:22.344Z,9.20
2019-01-30T03:56:53.352Z,9.77
2019-01-30T03:59:24.218Z,9.47
2019-01-30T04:01:55.234Z,11.83
2019-01-30T04:04:26.016Z,9.43
2019-01-30T04:06:57.100Z,10.17
2019-01-30T04:09:27.989Z,7.73
2019-01-30T04:11:58.966Z,8.60
2019-01-30T04:14:29.859Z,11.47
2019-01-30T04:17:00.798Z,10.77
2019-01-30T04:19:31.752Z,10.43
2019-01-30T04:22:02.740Z,7.97
2019-01-30T04:24:33.634Z,12.73
2019-01-30T04:27:04.612Z,11.80
2019-01-30T04:29:35.482Z,7.80
2019-01-30T04:32:06.759Z,8.87
2019-01-30T04:34:37.591Z,9.93
2019-01-30T04:37:08.711Z,10.77
2019-01-30T04:39:39.657Z,15.13
2019-01-30T04:42:10.704Z,10.80
2019-01-30T04:44:41.642Z,14.40
2019-01-30T04:47:12.605Z,8.53
2019-01-30T04:49:43.510Z,13.47
2019-01-30T04:52:14.490Z,10.00
2019-01-30T04:54:45.187Z,10.70
2019-01-30T04:57:16.191Z,15.10
2019-01-30T04:59:46.963Z,10.07
2019-01-30T05:02:18.038Z,11.87
2019-01-30T05:04:48.940Z,12.73
2019-01-30T05:07:20.394Z,13.67
2019-01-30T05:09:51.349Z,11.27
2019-01-30T05:12:22.349Z,12.23
2019-01-30T05:14:53.201Z,14.77
2019-01-30T05:17:24.251Z,11.87
2019-01-30T05:19:54.804Z,14.97
2019-01-30T05:22:26.210Z,13.73
2019-01-30T05:24:56.762Z,15.10
2019-01-30T05:27:27.463Z,13.20
2019-01-30T05:29:58.011Z,17.20
2019-01-30T05:32:28.631Z,14.73
2019-01-30T05:34:59.231Z,11.43
2019-01-30T05:37:30.017Z,12.40
2019-01-30T05:40:00.967Z,13.57
2019-01-30T05:42:31.978Z,15.07
2019-01-30T05:45:02.514Z,12.07
2019-01-30T05:47:33.198Z,12.23
2019-01-30T05:50:03.871Z,11.60
2019-01-30T05:52:34.545Z,16.67
2019-01-30T05:55:06.225Z,9.60
2019-01-30T05:57:37.069Z,8.40
2019-01-30T06:00:12.262Z,5.60
2019-01-30T06:02:43.173Z,4.60
2019-01-30T06:05:13.929Z,2.53
2019-01-30T06:07:44.627Z,2.23
2019-01-30T06:10:16.165Z,2.10
2019-01-30T06:12:46.960Z,1.40
2019-01-30T06:15:17.902Z,1.13
2019-01-30T06:17:48.879Z,1.80
2019-01-30T06:20:22.279Z,2.10
2019-01-30T06:22:53.809Z,1.67
2019-01-30T06:25:24.907Z,1.93
2019-01-30T06:27:55.902Z,1.57
2019-01-30T06:30:26.590Z,2.50
2019-01-30T06:32:57.580Z,2.00
2019-01-30T06:35:28.642Z,1.60
2019-01-30T06:37:59.529Z,1.10
2019-01-30T06:40:32.800Z,1.43
2019-01-30T06:43:04.072Z,1.03
2019-01-30T06:45:34.601Z,1.23
2019-01-30T06:48:05.801Z,2.37
2019-01-30T06:50:36.452Z,0.80
2019-01-30T06:53:07.186Z,2.63
2019-01-30T06:55:37.821Z,0.77
2019-01-30T06:58:08.932Z,0.60
2019-01-30T07:00:39.594Z,0.80
2019-01-30T07:03:10.376Z,1.73
2019-01-30T07:05:40.909Z,0.73
2019-01-30T07:08:12.105Z,0.60
2019-01-30T07:10:42.641Z,0.60
2019-01-30T07:13:13.225Z,0.63
2019-01-30T07:15:44.004Z,0.90
2019-01-30T07:18:14.601Z,0.60
2019-01-30T07:20:45.352Z,0.97
2019-01-30T07:23:16.101Z,0.70
2019-01-30T07:25:47.031Z,0.80
2019-01-30T07:28:18.086Z,0.60
2019-01-30T07:30:49.125Z,0.60
2019-01-30T07:33:22.472Z,0.63
2019-01-30T07:35:53.360Z,0.60
2019-01-30T07:38:24.337Z,0.80
2019-01-30T07:40:55.212Z,0.60
2019-01-30T07:43:26.106Z,0.60
2019-01-30T07:45:57.103Z,0.60
2019-01-30T07:48:29.213Z,0.50
2019-01-30T07:51:00.092Z,0.63
2019-01-30T07:53:31.189Z,1.20
2019-01-30T07:56:02.097Z,1.23
2019-01-30T07:58:32.966Z,0.97
2019-01-30T08:01:03.855Z,0.97
2019-01-30T08:03:35.566Z,0.57
2019-01-30T08:06:06.719Z,0.70
2019-01-30T08:08:37.661Z,1.00
2019-01-30T08:11:08.444Z,0.60
2019-01-30T08:13:39.425Z,0.60
2019-01-30T08:16:10.302Z,0.70
2019-01-30T08:18:41.371Z,0.60
2019-01-30T08:21:11.995Z,2.10
2019-01-30T08:23:43.387Z,0.60
2019-01-30T08:26:14.746Z,0.80
2019-01-30T08:28:46.277Z,0.80
2019-01-30T08:31:17.180Z,0.97
2019-01-30T08:33:48.912Z,1.23
2019-01-30T08:36:19.879Z,0.90
2019-01-30T08:38:51.428Z,0.80
2019-01-30T08:41:22.368Z,0.70
2019-01-30T08:43:54.165Z,0.70
2019-01-30T08:46:25.063Z,0.60
2019-01-30T08:48:55.966Z,1.30
2019-01-30T08:51:26.638Z,1.50
2019-01-30T08:53:57.605Z,1.50
2019-01-30T08:56:28.512Z,0.80
2019-01-30T08:58:59.511Z,0.90
2019-01-30T09:01:30.532Z,1.00
2019-01-30T09:04:02.173Z,0.60
2019-01-30T09:06:32.983Z,0.70
2019-01-30T09:09:05.784Z,1.33
2019-01-30T09:11:36.867Z,0.80
2019-01-30T09:14:07.778Z,1.47
2019-01-30T09:16:38.678Z,0.87
2019-01-30T09:19:11.838Z,1.03
2019-01-30T09:21:42.706Z,4.50
2019-01-30T09:24:16.085Z,1.07
2019-01-30T09:26:45.901Z,1.13
2019-01-30T09:29:16.896Z,1.10
2019-01-30T09:31:47.904Z,0.80
2019-01-30T09:34:18.905Z,0.90
2019-01-30T09:36:49.884Z,3.03
2019-01-30T09:39:20.607Z,0.87
2019-01-30T09:41:51.541Z,2.30
2019-01-30T09:44:22.533Z,1.73
2019-01-30T09:46:53.432Z,0.90
2019-01-30T09:49:24.332Z,0.60
2019-01-30T09:51:55.221Z,0.60
2019-01-30T09:54:26.178Z,0.70
2019-01-30T09:56:56.971Z,0.60
2019-01-30T09:59:27.962Z,0.60
2019-01-30T10:01:59.882Z,0.60
2019-01-30T10:04:30.866Z,1.00
2019-01-30T10:07:01.742Z,0.83
2019-01-30T10:09:32.792Z,0.70
2019-01-30T10:12:03.637Z,0.80
2019-01-30T10:14:34.626Z,0.70
2019-01-30T10:17:05.720Z,1.00
2019-01-30T10:19:41.399Z,0.90
2019-01-30T10:22:10.460Z,1.27
2019-01-30T10:24:41.521Z,1.10
2019-01-30T10:27:12.424Z,2.40
2019-01-30T10:29:43.520Z,1.00
2019-01-30T10:32:14.421Z,1.40
2019-01-30T10:34:45.481Z,1.67
2019-01-30T10:37:16.497Z,0.97
2019-01-30T10:39:47.398Z,1.93
2019-01-30T10:42:18.390Z,1.03
2019-01-30T10:44:49.357Z,0.90
2019-01-30T10:47:20.143Z,0.70
2019-01-30T10:49:51.214Z,0.83
2019-01-30T10:52:22.041Z,1.10
2019-01-30T10:54:53.223Z,0.70
2019-01-30T10:57:24.223Z,0.70
2019-01-30T10:59:55.206Z,1.10
2019-01-30T11:02:26.190Z,1.00
2019-01-30T11:04:57.464Z,0.60
2019-01-30T11:07:28.280Z,0.90
2019-01-30T11:09:59.341Z,0.90
2019-01-30T11:12:30.245Z,0.90
2019-01-30T11:15:03.014Z,1.20
2019-01-30T11:17:33.876Z,0.90
2019-01-30T11:20:05.908Z,0.60
2019-01-30T11:22:36.784Z,1.03
2019-01-30T11:25:10.525Z,2.07
2019-01-30T11:27:41.423Z,0.60
2019-01-30T11:30:13.016Z,0.70
2019-01-30T11:32:43.996Z,1.70
2019-01-30T11:35:15.249Z,1.70
2019-01-30T11:37:46.308Z,2.27
2019-01-30T11:40:18.018Z,1.53
2019-01-30T11:42:48.902Z,2.37
2019-01-30T11:45:25.615Z,1.83
2019-01-30T11:47:56.509Z,0.83
2019-01-30T11:50:27.813Z,1.53
2019-01-30T11:52:58.733Z,1.37
2019-01-30T11:55:29.745Z,6.23
2019-01-30T11:58:00.657Z,3.67
2019-01-30T12:00:54.990Z,1.10
2019-01-30T12:03:25.897Z,1.17
2019-01-30T12:05:57.610Z,1.10
2019-01-30T12:08:28.487Z,1.20
2019-01-30T12:10:59.904Z,1.40
2019-01-30T12:13:30.836Z,1.70
2019-01-30T12:16:02.037Z,1.30
2019-01-30T12:18:34.250Z,1.73
2019-01-30T12:21:05.273Z,1.63
2019-01-30T12:23:36.164Z,1.47
2019-01-30T12:26:07.276Z,1.60
2019-01-30T12:28:38.154Z,1.63
2019-01-30T12:31:09.369Z,2.53
2019-01-30T12:33:40.132Z,1.93
2019-01-30T12:36:11.220Z,1.00
2019-01-30T12:38:42.008Z,2.83
2019-01-30T12:41:13.287Z,1.23
2019-01-30T12:43:45.350Z,1.63
2019-01-30T12:46:16.381Z,1.53
2019-01-30T12:48:48.906Z,1.60
2019-01-30T12:51:20.108Z,2.40
2019-01-30T12:53:51.414Z,1.60
2019-01-30T12:56:22.404Z,1.20
2019-01-30T12:58:53.311Z,1.37
2019-01-30T13:01:24.381Z,2.13
2019-01-30T13:03:55.176Z,1.37
2019-01-30T13:06:26.058Z,2.93
2019-01-30T13:08:56.840Z,3.90
2019-01-30T13:11:28.040Z,6.00
2019-01-30T13:13:58.943Z,3.57
2019-01-30T13:16:29.913Z,2.70
2019-01-30T13:19:00.824Z,2.47
2019-01-30T13:21:32.282Z,2.33
2019-01-30T13:24:03.101Z,2.97
2019-01-30T13:26:34.095Z,2.80
2019-01-30T13:29:05.062Z,1.47
2019-01-30T13:31:36.322Z,4.30
2019-01-30T13:34:07.572Z,2.07
2019-01-30T13:36:40.226Z,0.90
2019-01-30T13:39:11.293Z,2.97
2019-01-30T13:41:42.347Z,1.67
2019-01-30T13:44:13.278Z,2.73
2019-01-30T13:46:44.307Z,2.63
2019-01-30T13:49:15.154Z,2.47
2019-01-30T13:51:46.078Z,2.97
2019-01-30T13:54:16.925Z,2.00
2019-01-30T13:56:48.113Z,1.47
2019-01-30T13:59:19.107Z,3.17
2019-01-30T14:01:50.083Z,3.10
2019-01-30T14:04:21.094Z,3.37
2019-01-30T14:06:51.961Z,4.00
2019-01-30T14:09:22.954Z,1.10
2019-01-30T14:11:53.938Z,4.10
2019-01-30T14:14:24.844Z,1.87
2019-01-30T14:16:56.012Z,1.40
2019-01-30T14:19:26.940Z,3.53
2019-01-30T14:21:57.900Z,2.60
2019-01-30T14:24:28.689Z,1.50
2019-01-30T14:26:59.961Z,1.63
2019-01-30T14:29:30.889Z,1.03
2019-01-30T14:32:02.179Z,3.00
2019-01-30T14:34:32.984Z,2.10
2019-01-30T14:37:04.792Z,2.07
2019-01-30T14:39:35.554Z,3.67
2019-01-30T14:42:06.745Z,1.13
2019-01-30T14:44:37.624Z,3.53
2019-01-30T14:47:10.425Z,5.50
2019-01-30T14:49:41.062Z,2.13
2019-01-30T14:52:12.153Z,1.23
2019-01-30T14:54:42.921Z,4.93
2019-01-30T14:57:13.901Z,1.20
2019-01-30T14:59:45.039Z,6.40
2019-01-30T15:02:16.029Z,2.63
2019-01-30T15:04:46.792Z,1.90
2019-01-30T15:07:28.131Z,2.40
2019-01-30T15:09:50.397Z,1.87
2019-01-30T15:12:21.459Z,2.47
2019-01-30T15:14:52.317Z,2.73
2019-01-30T15:17:23.264Z,1.47
2019-01-30T15:19:54.265Z,2.07
2019-01-30T15:22:25.457Z,2.10
2019-01-30T15:24:56.234Z,2.70
2019-01-30T15:27:27.123Z,15.17
2019-01-30T15:29:58.016Z,13.27
2019-01-30T15:32:31.677Z,5.97
2019-01-30T15:35:01.543Z,16.53
2019-01-30T15:37:33.123Z,4.00
2019-01-30T15:40:04.944Z,8.10
2019-01-30T15:42:35.953Z,6.93
2019-01-30T15:45:10.056Z,6.17
2019-01-30T15:47:41.241Z,1.60
2019-01-30T15:50:32.672Z,2.33
2019-01-30T15:53:05.108Z,4.00
2019-01-30T15:55:37.221Z,4.90
2019-01-30T15:58:10.430Z,1.70
2019-01-30T16:00:46.979Z,1.30
2019-01-30T16:03:18.003Z,1.50
2019-01-30T16:05:49.068Z,2.33
2019-01-30T16:08:20.256Z,1.63
2019-01-30T16:10:51.116Z,1.47
2019-01-30T16:13:22.294Z,1.63
2019-01-30T16:15:58.856Z,1.50
2019-01-30T16:18:29.993Z,1.27
2019-01-30T16:21:00.924Z,1.20
2019-01-30T16:23:32.093Z,4.00
2019-01-30T16:26:03.015Z,4.40
2019-01-30T16:28:34.128Z,4.87
2019-01-30T16:31:05.104Z,4.50
2019-01-30T16:33:36.145Z,4.47
2019-01-30T16:36:06.973Z,2.60
2019-01-30T16:38:37.768Z,2.10
2019-01-30T16:41:08.312Z,7.23
2019-01-30T16:43:38.986Z,2.70
2019-01-30T16:46:09.625Z,2.83
2019-01-30T16:48:40.305Z,2.03
2019-01-30T16:51:10.937Z,2.87
2019-01-30T16:53:41.506Z,6.70
2019-01-30T16:56:12.145Z,3.00
2019-01-30T16:58:42.833Z,4.10
2019-01-30T17:01:13.678Z,2.73
2019-01-30T17:03:44.227Z,7.80
2019-01-30T17:06:15.150Z,2.10
2019-01-30T17:08:45.691Z,8.40
2019-01-30T17:11:16.224Z,4.20
2019-01-30T17:13:46.818Z,2.80
2019-01-30T17:16:17.358Z,1.87
2019-01-30T17:18:47.896Z,3.30
2019-01-30T17:21:18.772Z,1.87
2019-01-30T17:23:49.481Z,2.30
2019-01-30T17:26:20.159Z,3.47
2019-01-30T17:28:50.778Z,4.07
2019-01-30T17:31:24.722Z,4.50
2019-01-30T17:33:55.402Z,3.57
2019-01-30T17:36:25.989Z,3.00
2019-01-30T17:38:56.534Z,5.00
2019-01-30T17:41:27.505Z,3.93
2019-01-30T17:43:58.113Z,5.27
2019-01-30T17:46:28.703Z,3.60
2019-01-30T17:48:59.253Z,6.43
2019-01-30T17:51:29.933Z,6.43
2019-01-30T17:54:00.474Z,6.03
2019-01-30T17:56:31.175Z,3.20
2019-01-30T17:59:01.774Z,2.87
2019-01-30T18:01:32.467Z,3.60
2019-01-30T18:04:03.002Z,5.07
2019-01-30T18:06:33.721Z,3.27
2019-01-30T18:09:07.598Z,3.83
2019-01-30T18:11:38.653Z,3.07
2019-01-30T18:14:09.188Z,4.00
2019-01-30T18:16:40.177Z,2.47
2019-01-30T18:19:10.731Z,5.83
2019-01-30T18:21:41.355Z,6.27
2019-01-30T18:24:12.033Z,2.40
2019-01-30T18:26:42.639Z,5.63
2019-01-30T18:29:13.178Z,7.67
2019-01-30T18:31:43.774Z,3.00
2019-01-30T18:34:14.314Z,3.80
2019-01-30T18:36:45.665Z,3.50
2019-01-30T18:39:16.214Z,3.23
2019-01-30T18:41:46.816Z,3.90
2019-01-30T18:44:18.344Z,4.30
2019-01-30T18:46:49.027Z,2.40
2019-01-30T18:49:19.575Z,3.87
2019-01-30T18:51:50.286Z,4.43
2019-01-30T18:54:20.831Z,3.17
2019-01-30T18:56:51.441Z,2.70
2019-01-30T18:59:21.996Z,4.30
2019-01-30T19:01:52.631Z,3.10
2019-01-30T19:04:23.179Z,4.47
2019-01-30T19:06:54.190Z,3.73
2019-01-30T19:09:24.887Z,4.67
2019-01-30T19:11:55.569Z,4.20
2019-01-30T19:14:26.116Z,5.30
2019-01-30T19:16:56.718Z,7.03
2019-01-30T19:19:27.263Z,4.90
2019-01-30T19:21:57.855Z,7.27
2019-01-30T19:24:28.453Z,4.33
2019-01-30T19:26:59.115Z,2.30
2019-01-30T19:29:29.664Z,15.10
2019-01-30T19:32:00.343Z,4.63
2019-01-30T19:34:30.908Z,3.17
2019-01-30T19:37:03.526Z,3.83
2019-01-30T19:39:33.750Z,2.57
2019-01-30T19:42:04.614Z,2.87
2019-01-30T19:44:35.563Z,2.33
2019-01-30T19:47:06.698Z,3.17
2019-01-30T19:49:37.318Z,4.53
2019-01-30T19:52:08.224Z,1.97
2019-01-30T19:54:38.762Z,3.10
2019-01-30T19:57:09.647Z,2.00
2019-01-30T19:59:40.189Z,2.33
2019-01-30T20:02:10.983Z,4.07
2019-01-30T20:04:41.714Z,6.03
2019-01-30T20:07:14.913Z,4.63
2019-01-30T20:09:45.036Z,3.90
2019-01-30T20:12:15.879Z,4.33
2019-01-30T20:14:46.422Z,5.90
2019-01-30T20:17:18.101Z,3.10
2019-01-30T20:19:48.641Z,5.20
2019-01-30T20:22:19.578Z,3.33
2019-01-30T20:24:50.173Z,2.00
2019-01-30T20:27:20.869Z,3.40
2019-01-30T20:29:51.417Z,5.57
2019-01-30T20:32:22.105Z,2.50
2019-01-30T20:34:52.644Z,2.20
2019-01-30T20:37:26.234Z,2.77
2019-01-30T20:39:55.569Z,2.83
2019-01-30T20:42:26.179Z,4.30
2019-01-30T20:44:56.712Z,3.60
2019-01-30T20:47:27.394Z,3.97
2019-01-30T20:49:58.930Z,3.40
2019-01-30T20:52:29.532Z,2.30
2019-01-30T20:55:00.331Z,3.77
2019-01-30T20:57:31.081Z,6.33
2019-01-30T21:00:02.155Z,2.17
2019-01-30T21:02:33.968Z,4.27
2019-01-30T21:05:05.010Z,4.30
2019-01-30T21:07:37.338Z,3.93
2019-01-30T21:10:10.479Z,2.97
2019-01-30T21:12:41.064Z,3.33
2019-01-30T21:15:13.361Z,3.90
2019-01-30T21:17:44.187Z,1.53
2019-01-30T21:20:16.625Z,1.77
2019-01-30T21:22:47.301Z,5.13
2019-01-30T21:25:19.796Z,1.73
2019-01-30T21:27:50.518Z,4.00
2019-01-30T21:30:27.041Z,4.03
2019-01-30T21:32:57.706Z,2.60
2019-01-30T21:35:28.236Z,1.87
2019-01-30T21:37:58.967Z,2.87
2019-01-30T21:40:29.449Z,2.07
2019-01-30T21:43:00.045Z,1.33
2019-01-30T21:45:30.597Z,2.17
2019-01-30T21:48:01.203Z,2.07
2019-01-30T21:50:31.940Z,1.83
2019-01-30T21:53:02.585Z,2.57
2019-01-30T21:55:33.114Z,2.00
2019-01-30T21:58:03.989Z,2.20
2019-01-30T22:00:34.730Z,3.47
2019-01-30T22:03:05.932Z,2.43
2019-01-30T22:05:36.465Z,4.27
2019-01-30T22:08:07.353Z,2.63
2019-01-30T22:10:37.969Z,2.60
2019-01-30T22:13:09.482Z,5.63
2019-01-30T22:15:40.008Z,6.67
2019-01-30T22:18:10.602Z,5.37
2019-01-30T22:20:41.137Z,5.73
2019-01-30T22:23:11.734Z,4.50
2019-01-30T22:25:42.322Z,5.30
2019-01-30T22:28:13.267Z,3.77
2019-01-30T22:30:43.798Z,3.50
2019-01-30T22:33:14.395Z,2.63
2019-01-30T22:35:44.924Z,3.90
2019-01-30T22:38:15.526Z,4.70
2019-01-30T22:40:46.055Z,4.73
2019-01-30T22:43:16.654Z,4.37
2019-01-30T22:45:47.194Z,3.10
2019-01-30T22:48:17.804Z,1.40
2019-01-30T22:50:48.336Z,4.00
2019-01-30T22:53:19.032Z,1.47
2019-01-30T22:55:49.587Z,7.63
2019-01-30T22:58:20.641Z,1.33
2019-01-30T23:01:32.777Z,3.13
2019-01-30T23:04:45.779Z,2.50
2019-01-30T23:07:56.004Z,3.60
2019-01-30T23:11:09.022Z,2.60
2019-01-30T23:14:09.587Z,2.37
2019-01-30T23:17:16.087Z,1.37
2019-01-30T23:20:07.877Z,1.17
2019-01-30T23:23:25.757Z,1.13
2019-01-30T23:26:20.002Z,1.53
2019-01-30T23:29:40.242Z,5.20
2019-01-30T23:32:45.550Z,4.10
2019-01-30T23:35:48.960Z,3.77
2019-01-30T23:39:15.450Z,4.10
2019-01-30T23:42:27.333Z,4.30
2019-01-30T23:45:23.213Z,5.50
2019-01-30T23:48:40.713Z,3.13
2019-01-30T23:51:51.914Z,7.53
2019-01-30T23:55:05.646Z,3.33
2019-01-30T23:58:30.970Z,8.37
